GJLL EGBM-EGBM
Flight info
| Callsign | GJLL |
|---|---|
| Flight time | N/A |
| Altitude | 2000 |
| Route | EGBM |
| Aircraft | G2CA/L-SFG/C |
Departure
| Time | 2026-05-06 18:37 |
|---|---|
| Airport | Tatenhill Airfield (EGBM) |
Arrival
| Time | N/A |
|---|---|
| Airport | Tatenhill Airfield (EGBM) |
| Time | Latitude | Longitude | Altitude | Speed | Heading |
|---|---|---|---|---|---|
| 2026-05-06 18:32 | 52.81655 | -1.75839 | 445 ft | 0 kts | 6° |
| 2026-05-06 18:33 | 52.81655 | -1.75840 | 463 ft | 3 kts | 5° |
| 2026-05-06 18:34 | 52.81656 | -1.75848 | 446 ft | 2 kts | 18° |
| 2026-05-06 18:34 | 52.81653 | -1.75840 | 445 ft | 0 kts | 23° |
| 2026-05-06 18:35 | 52.81654 | -1.75839 | 447 ft | 0 kts | 23° |
| 2026-05-06 18:36 | 52.81653 | -1.75840 | 445 ft | 0 kts | 23° |
| 2026-05-06 18:36 | 52.81651 | -1.75854 | 463 ft | 3 kts | 211° |
| 2026-05-06 18:36 | 52.81519 | -1.76028 | 773 ft | 59 kts | 249° |
| 2026-05-06 18:36 | 52.81774 | -1.76613 | 1021 ft | 76 kts | 271° |
| 2026-05-06 18:37 | 52.81943 | -1.77633 | 1030 ft | 100 kts | 297° |
| 2026-05-06 18:37 | 52.82502 | -1.77958 | 1150 ft | 87 kts | 7° |
| 2026-05-06 18:37 | 52.83091 | -1.77960 | 1377 ft | 87 kts | 5° |
| 2026-05-06 18:37 | 52.83682 | -1.77892 | 1606 ft | 85 kts | 8° |
| 2026-05-06 18:38 | 52.84294 | -1.77785 | 1739 ft | 87 kts | 18° |
| 2026-05-06 18:38 | 52.84892 | -1.77401 | 1684 ft | 95 kts | 29° |
| 2026-05-06 18:38 | 52.85526 | -1.77057 | 1725 ft | 97 kts | 24° |
| 2026-05-06 18:38 | 52.86144 | -1.76643 | 1803 ft | 95 kts | 24° |
| 2026-05-06 18:39 | 52.86777 | -1.76263 | 1785 ft | 101 kts | 21° |
| 2026-05-06 18:39 | 52.87449 | -1.75945 | 1752 ft | 99 kts | 34° |
| 2026-05-06 18:39 | 52.88105 | -1.75630 | 1681 ft | 107 kts | 3° |
| 2026-05-06 18:40 | 52.89429 | -1.76841 | 1420 ft | 114 kts | 4° |
| 2026-05-06 18:40 | 52.90140 | -1.76639 | 1505 ft | 97 kts | 13° |
| 2026-05-06 18:40 | 52.90821 | -1.76331 | 1447 ft | 100 kts | 21° |
| 2026-05-06 18:40 | 52.91517 | -1.76106 | 1377 ft | 105 kts | 12° |
| 2026-05-06 18:41 | 52.92237 | -1.76134 | 1402 ft | 102 kts | 4° |
| 2026-05-06 18:41 | 52.92960 | -1.76265 | 1324 ft | 107 kts | 4° |
| 2026-05-06 18:41 | 52.93689 | -1.76191 | 1338 ft | 100 kts | 8° |
| 2026-05-06 18:41 | 52.94369 | -1.75945 | 1257 ft | 100 kts | 20° |
| 2026-05-06 18:42 | 52.95058 | -1.75803 | 1252 ft | 100 kts | 9° |
| 2026-05-06 18:42 | 52.95766 | -1.75828 | 1185 ft | 101 kts | 2° |
| 2026-05-06 18:42 | 52.96436 | -1.75689 | 1228 ft | 95 kts | 22° |
| 2026-05-06 18:42 | 52.97028 | -1.75201 | 1195 ft | 97 kts | 28° |
| 2026-05-06 18:43 | 52.97724 | -1.75037 | 1108 ft | 105 kts | 5° |
| 2026-05-06 18:43 | 52.98378 | -1.74725 | 1151 ft | 95 kts | 19° |
| 2026-05-06 18:43 | 52.99098 | -1.74749 | 989 ft | 106 kts | 359° |
| 2026-05-06 18:43 | 52.99736 | -1.75014 | 1294 ft | 62 kts | 332° |
| 2026-05-06 18:44 | 53.00275 | -1.75078 | 1088 ft | 100 kts | 30° |
| 2026-05-06 18:44 | 53.00809 | -1.74438 | 1064 ft | 95 kts | 44° |
| 2026-05-06 18:44 | 53.01291 | -1.73697 | 1001 ft | 92 kts | 62° |
| 2026-05-06 18:44 | 53.01380 | -1.72667 | 1006 ft | 91 kts | 96° |
| 2026-05-06 18:45 | 53.01349 | -1.71634 | 1054 ft | 91 kts | 94° |
| 2026-05-06 18:45 | 53.01367 | -1.70591 | 1022 ft | 96 kts | 84° |
| 2026-05-06 18:45 | 53.01342 | -1.69504 | 1040 ft | 93 kts | 83° |
| 2026-05-06 18:45 | 53.01408 | -1.68426 | 1042 ft | 93 kts | 79° |
| 2026-05-06 18:46 | 53.01490 | -1.67349 | 985 ft | 94 kts | 89° |
| 2026-05-06 18:46 | 53.01667 | -1.66310 | 977 ft | 94 kts | 66° |
| 2026-05-06 18:46 | 53.02000 | -1.65374 | 998 ft | 90 kts | 66° |
| 2026-05-06 18:46 | 53.02428 | -1.64587 | 998 ft | 91 kts | 50° |
| 2026-05-06 18:47 | 53.02934 | -1.63905 | 976 ft | 95 kts | 42° |
| 2026-05-06 18:47 | 53.03496 | -1.63345 | 1071 ft | 92 kts | 43° |
| 2026-05-06 18:47 | 53.04054 | -1.62957 | 1198 ft | 99 kts | 349° |
| 2026-05-06 18:47 | 53.04684 | -1.63488 | 1238 ft | 102 kts | 340° |
| 2026-05-06 18:48 | 53.05328 | -1.64035 | 1223 ft | 107 kts | 333° |
| 2026-05-06 18:48 | 53.05889 | -1.64277 | 998 ft | 55 kts | 31° |
| 2026-05-06 18:48 | 53.06020 | -1.64235 | 717 ft | 12 kts | 49° |
| 2026-05-06 18:48 | 53.06046 | -1.64194 | 664 ft | 0 kts | 61° |
| 2026-05-06 18:51 | 53.06048 | -1.64184 | 733 ft | 10 kts | 66° |
| 2026-05-06 18:51 | 53.06301 | -1.64327 | 1042 ft | 78 kts | 318° |
| 2026-05-06 18:51 | 53.06771 | -1.64865 | 1280 ft | 82 kts | 5° |
| 2026-05-06 18:51 | 53.07180 | -1.64237 | 1409 ft | 83 kts | 31° |
| 2026-05-06 18:52 | 53.07754 | -1.64067 | 1660 ft | 86 kts | 11° |
| 2026-05-06 18:52 | 53.08364 | -1.64197 | 1824 ft | 96 kts | 336° |
| 2026-05-06 18:52 | 53.08943 | -1.64708 | 1999 ft | 93 kts | 336° |
| 2026-05-06 18:52 | 53.09469 | -1.65370 | 2138 ft | 97 kts | 322° |
| 2026-05-06 18:53 | 53.09939 | -1.66164 | 2309 ft | 97 kts | 312° |
| 2026-05-06 18:53 | 53.10324 | -1.67104 | 2463 ft | 98 kts | 306° |
| 2026-05-06 18:53 | 53.10632 | -1.68111 | 2613 ft | 99 kts | 294° |
| 2026-05-06 18:53 | 53.10886 | -1.69243 | 2566 ft | 109 kts | 293° |
| 2026-05-06 18:54 | 53.11139 | -1.70404 | 2638 ft | 104 kts | 295° |
| 2026-05-06 18:54 | 53.11461 | -1.71497 | 2689 ft | 109 kts | 298° |
| 2026-05-06 18:54 | 53.11746 | -1.72632 | 2806 ft | 108 kts | 294° |
| 2026-05-06 18:54 | 53.12001 | -1.73843 | 2804 ft | 112 kts | 292° |
| 2026-05-06 18:55 | 53.12272 | -1.75060 | 2788 ft | 112 kts | 292° |
| 2026-05-06 18:55 | 53.12479 | -1.76326 | 2695 ft | 117 kts | 282° |
| 2026-05-06 18:55 | 53.12637 | -1.77625 | 2696 ft | 112 kts | 285° |
| 2026-05-06 18:55 | 53.12870 | -1.78893 | 2640 ft | 116 kts | 292° |
| 2026-05-06 18:56 | 53.13110 | -1.80149 | 2626 ft | 115 kts | 290° |
| 2026-05-06 18:56 | 53.13398 | -1.81396 | 2547 ft | 114 kts | 299° |
| 2026-05-06 18:56 | 53.14006 | -1.82015 | 2560 ft | 102 kts | 360° |
| 2026-05-06 18:56 | 53.14735 | -1.81865 | 2383 ft | 108 kts | 15° |
| 2026-05-06 18:57 | 53.15510 | -1.81958 | 2169 ft | 115 kts | 358° |
| 2026-05-06 18:57 | 53.16228 | -1.82382 | 2303 ft | 98 kts | 338° |
| 2026-05-06 18:57 | 53.16815 | -1.83034 | 2305 ft | 110 kts | 327° |
| 2026-05-06 18:57 | 53.17384 | -1.83887 | 2323 ft | 108 kts | 319° |
| 2026-05-06 18:58 | 53.17951 | -1.84713 | 2331 ft | 109 kts | 323° |
| 2026-05-06 18:58 | 53.18512 | -1.85617 | 2264 ft | 113 kts | 321° |
| 2026-05-06 18:58 | 53.19052 | -1.86553 | 2247 ft | 113 kts | 315° |
| 2026-05-06 18:58 | 53.19480 | -1.87668 | 2114 ft | 118 kts | 303° |
| 2026-05-06 18:59 | 53.19780 | -1.88893 | 2116 ft | 114 kts | 289° |
| 2026-05-06 18:59 | 53.19964 | -1.90201 | 2017 ft | 117 kts | 285° |
| 2026-05-06 18:59 | 53.20329 | -1.91347 | 2031 ft | 107 kts | 321° |
| 2026-05-06 18:59 | 53.20983 | -1.91869 | 2077 ft | 106 kts | 335° |
| 2026-05-06 19:00 | 53.21440 | -1.92835 | 2125 ft | 110 kts | 292° |
| 2026-05-06 19:00 | 53.21445 | -1.94087 | 2197 ft | 109 kts | 260° |
| 2026-05-06 19:00 | 53.21332 | -1.95311 | 2294 ft | 106 kts | 261° |
| 2026-05-06 19:00 | 53.21444 | -1.96462 | 2406 ft | 103 kts | 314° |
| 2026-05-06 19:01 | 53.21876 | -1.97181 | 2846 ft | 71 kts | 307° |
| 2026-05-06 19:01 | 53.22112 | -1.97893 | 3274 ft | 69 kts | 298° |
| 2026-05-06 19:01 | 53.22317 | -1.98652 | 3250 ft | 73 kts | 266° |
| 2026-05-06 19:01 | 53.22380 | -1.99479 | 3386 ft | 69 kts | 270° |
| 2026-05-06 19:02 | 53.22630 | -2.00186 | 3718 ft | 74 kts | 302° |
| 2026-05-06 19:02 | 53.22945 | -2.00914 | 3985 ft | 75 kts | 304° |
| 2026-05-06 19:02 | 53.23196 | -2.01647 | 4268 ft | 80 kts | 298° |
| 2026-05-06 19:02 | 53.23552 | -2.02389 | 4491 ft | 75 kts | 307° |
| 2026-05-06 19:03 | 53.23889 | -2.03160 | 4539 ft | 95 kts | 312° |
| 2026-05-06 19:03 | 53.24306 | -2.03910 | 4745 ft | 84 kts | 313° |
| 2026-05-06 19:03 | 53.24723 | -2.04683 | 4814 ft | 87 kts | 311° |
| 2026-05-06 19:03 | 53.25105 | -2.05499 | 4842 ft | 93 kts | 307° |
| 2026-05-06 19:04 | 53.25510 | -2.06329 | 4940 ft | 92 kts | 310° |
| 2026-05-06 19:04 | 53.25901 | -2.07218 | 4942 ft | 97 kts | 308° |
| 2026-05-06 19:04 | 53.26358 | -2.08092 | 4858 ft | 99 kts | 316° |
| 2026-05-06 19:04 | 53.26759 | -2.08878 | 5054 ft | 88 kts | 308° |
| 2026-05-06 19:05 | 53.27179 | -2.09710 | 5000 ft | 99 kts | 314° |
| 2026-05-06 19:05 | 53.27723 | -2.10532 | 4723 ft | 113 kts | 325° |
| 2026-05-06 19:05 | 53.28378 | -2.11179 | 4621 ft | 106 kts | 327° |
| 2026-05-06 19:05 | 53.28963 | -2.11992 | 4419 ft | 112 kts | 321° |
| 2026-05-06 19:06 | 53.29599 | -2.12708 | 4292 ft | 110 kts | 332° |
| 2026-05-06 19:06 | 53.30286 | -2.13287 | 4124 ft | 111 kts | 338° |
| 2026-05-06 19:06 | 53.30983 | -2.13842 | 3985 ft | 111 kts | 338° |
| 2026-05-06 19:06 | 53.31670 | -2.14439 | 3855 ft | 112 kts | 334° |
| 2026-05-06 19:07 | 53.32261 | -2.15185 | 3927 ft | 98 kts | 313° |
| 2026-05-06 19:07 | 53.32513 | -2.15774 | 4060 ft | 93 kts | 302° |
| 2026-05-06 19:07 | 53.32897 | -2.17035 | 4322 ft | 86 kts | 292° |
| 2026-05-06 19:07 | 53.33118 | -2.17882 | 4394 ft | 96 kts | 294° |
| 2026-05-06 19:08 | 53.33403 | -2.18873 | 4385 ft | 100 kts | 296° |
| 2026-05-06 19:08 | 53.33782 | -2.19815 | 4474 ft | 96 kts | 310° |
| 2026-05-06 19:08 | 53.34269 | -2.20639 | 4435 ft | 103 kts | 319° |
| 2026-05-06 19:08 | 53.34815 | -2.21453 | 4332 ft | 108 kts | 321° |
| 2026-05-06 19:09 | 53.35377 | -2.22210 | 4372 ft | 101 kts | 323° |
| 2026-05-06 19:09 | 53.35922 | -2.22882 | 4488 ft | 94 kts | 324° |
| 2026-05-06 19:09 | 53.36447 | -2.23484 | 4655 ft | 89 kts | 325° |
| 2026-05-06 19:09 | 53.36920 | -2.24124 | 4845 ft | 85 kts | 318° |
| 2026-05-06 19:10 | 53.37345 | -2.24782 | 5035 ft | 82 kts | 313° |
| 2026-05-06 19:10 | 53.37756 | -2.25458 | 5190 ft | 84 kts | 312° |
| 2026-05-06 19:10 | 53.38117 | -2.26150 | 5308 ft | 89 kts | 311° |
| 2026-05-06 19:10 | 53.38578 | -2.26903 | 5257 ft | 95 kts | 321° |
| 2026-05-06 19:11 | 53.39077 | -2.27496 | 5443 ft | 86 kts | 321° |
| 2026-05-06 19:11 | 53.39560 | -2.28122 | 5438 ft | 93 kts | 322° |
| 2026-05-06 19:11 | 53.40133 | -2.28720 | 5323 ft | 101 kts | 330° |
| 2026-05-06 19:11 | 53.40815 | -2.29057 | 5150 ft | 94 kts | 8° |
| 2026-05-06 19:12 | 53.41365 | -2.28977 | 4658 ft | 92 kts | 358° |
| 2026-05-06 19:12 | 53.42050 | -2.29279 | 3505 ft | 109 kts | 349° |
| 2026-05-06 19:12 | 53.42658 | -2.29910 | 2770 ft | 86 kts | 314° |
| 2026-05-06 19:12 | 53.42986 | -2.30649 | 2801 ft | 87 kts | 313° |
| 2026-05-06 19:13 | 53.43408 | -2.31477 | 2576 ft | 102 kts | 314° |
| 2026-05-06 19:13 | 53.43872 | -2.32488 | 2167 ft | 114 kts | 314° |
| 2026-05-06 19:13 | 53.44462 | -2.33329 | 1820 ft | 113 kts | 336° |
| 2026-05-06 19:13 | 53.45188 | -2.33789 | 1493 ft | 107 kts | 348° |
| 2026-05-06 19:14 | 53.45806 | -2.34360 | 1365 ft | 100 kts | 322° |
| 2026-05-06 19:14 | 53.46256 | -2.35231 | 1212 ft | 99 kts | 313° |
| 2026-05-06 19:14 | 53.46705 | -2.36071 | 1032 ft | 91 kts | 319° |
| 2026-05-06 19:14 | 53.47083 | -2.36940 | 758 ft | 94 kts | 304° |
| 2026-05-06 19:15 | 53.47251 | -2.37924 | 354 ft | 82 kts | 276° |
| 2026-05-06 19:15 | 53.47165 | -2.38637 | 147 ft | 41 kts | 263° |
| 2026-05-06 19:15 | 53.47035 | -2.38860 | 71 ft | 21 kts | 253° |
| 2026-05-06 19:15 | 53.47030 | -2.38873 | 67 ft | 0 kts | 253° |